createdAt,value
2023-03-17T00:02:59.549Z,1.30
2023-03-17T00:06:28.509Z,1.20
2023-03-17T00:09:50.808Z,1.20
2023-03-17T00:13:13.105Z,1.00
2023-03-17T00:16:39.793Z,1.00
2023-03-17T00:20:02.716Z,1.42
2023-03-17T00:23:25.499Z,1.40
2023-03-17T00:26:48.330Z,1.30
2023-03-17T00:30:12.119Z,1.67
2023-03-17T00:33:37.139Z,0.90
2023-03-17T00:36:59.463Z,1.48
2023-03-17T00:40:25.541Z,1.25
2023-03-17T00:43:47.838Z,1.00
2023-03-17T00:47:11.857Z,0.90
2023-03-17T00:50:34.169Z,1.25
2023-03-17T00:53:57.516Z,1.13
2023-03-17T00:57:19.866Z,1.40
2023-03-17T01:00:42.366Z,1.15
2023-03-17T01:04:04.797Z,1.20
2023-03-17T01:07:28.279Z,1.17
2023-03-17T01:10:50.512Z,1.13
2023-03-17T01:14:15.228Z,1.45
2023-03-17T01:17:38.078Z,1.50
2023-03-17T01:21:00.452Z,1.02
2023-03-17T01:24:22.728Z,1.40
2023-03-17T01:27:46.512Z,1.38
2023-03-17T01:31:09.580Z,1.08
2023-03-17T01:34:32.875Z,1.40
2023-03-17T01:37:57.216Z,1.30
2023-03-17T01:41:20.970Z,1.20
2023-03-17T01:45:06.110Z,0.98
2023-03-17T01:48:30.200Z,1.07
2023-03-17T01:52:00.257Z,1.00
2023-03-17T01:55:22.969Z,1.13
2023-03-17T01:58:49.186Z,1.05
2023-03-17T02:02:16.721Z,1.60
2023-03-17T02:05:39.607Z,0.80
2023-03-17T02:09:01.975Z,1.08
2023-03-17T02:12:25.419Z,1.02
2023-03-17T02:15:50.300Z,1.08
2023-03-17T02:19:14.225Z,1.02
2023-03-17T02:22:36.533Z,1.05
2023-03-17T02:25:58.992Z,0.90
2023-03-17T02:29:23.798Z,0.90
2023-03-17T02:32:46.352Z,1.20
2023-03-17T02:36:10.877Z,1.10
2023-03-17T02:39:33.706Z,0.93
2023-03-17T02:42:56.443Z,0.90
2023-03-17T02:46:23.872Z,0.88
2023-03-17T02:49:46.693Z,0.90
2023-03-17T02:53:09.347Z,1.10
2023-03-17T02:56:31.923Z,0.85
2023-03-17T02:59:54.121Z,1.25
2023-03-17T03:03:16.365Z,0.90
2023-03-17T03:06:39.878Z,0.80
2023-03-17T03:10:02.491Z,1.02
2023-03-17T03:13:24.742Z,1.23
2023-03-17T03:16:47.009Z,1.50
2023-03-17T03:20:11.551Z,0.90
2023-03-17T03:23:34.236Z,0.88
2023-03-17T03:26:56.514Z,0.98
2023-03-17T03:30:19.238Z,1.05
2023-03-17T03:33:42.276Z,1.00
2023-03-17T03:37:04.517Z,1.08
2023-03-17T03:40:27.079Z,1.25
2023-03-17T03:43:49.282Z,0.85
2023-03-17T03:47:11.939Z,1.38
2023-03-17T03:50:34.165Z,1.48
2023-03-17T03:53:56.400Z,1.00
2023-03-17T03:57:18.534Z,1.23
2023-03-17T04:00:40.782Z,1.00
2023-03-17T04:04:03.052Z,1.15
2023-03-17T04:07:25.480Z,0.90
2023-03-17T04:10:47.916Z,1.10
2023-03-17T04:14:10.242Z,0.88
2023-03-17T04:17:32.657Z,1.00
2023-03-17T04:20:54.909Z,1.08
2023-03-17T04:24:17.142Z,1.17
2023-03-17T04:27:39.429Z,1.02
2023-03-17T04:31:01.854Z,0.80
2023-03-17T04:34:24.165Z,0.95
2023-03-17T04:37:46.658Z,1.00
2023-03-17T04:41:08.934Z,1.10
2023-03-17T04:44:31.285Z,1.00
2023-03-17T04:47:53.552Z,0.77
2023-03-17T04:51:17.079Z,1.05
2023-03-17T04:54:39.446Z,1.00
2023-03-17T04:58:01.698Z,0.90
2023-03-17T05:01:24.191Z,0.73
2023-03-17T05:04:46.712Z,1.10
2023-03-17T05:08:08.963Z,1.20
2023-03-17T05:11:32.216Z,1.20
2023-03-17T05:14:54.462Z,1.13
2023-03-17T05:18:18.189Z,0.80
2023-03-17T05:21:40.750Z,1.02
2023-03-17T05:25:03.968Z,0.85
2023-03-17T05:28:26.810Z,0.90
2023-03-17T05:31:49.051Z,1.00
2023-03-17T05:35:11.373Z,0.90
2023-03-17T05:38:33.568Z,1.23
2023-03-17T05:41:56.902Z,0.98
2023-03-17T05:45:19.241Z,1.02
2023-03-17T05:48:41.951Z,0.77
2023-03-17T05:52:04.271Z,1.08
2023-03-17T05:55:26.757Z,0.88
2023-03-17T05:58:49.226Z,1.10
2023-03-17T06:02:12.245Z,0.70
2023-03-17T06:05:34.999Z,1.10
2023-03-17T06:08:57.184Z,1.10
2023-03-17T06:12:19.422Z,1.33
2023-03-17T06:15:42.450Z,1.13
2023-03-17T06:19:04.732Z,0.98
2023-03-17T06:22:27.695Z,1.08
2023-03-17T06:25:50.475Z,1.00
2023-03-17T06:29:12.734Z,1.13
2023-03-17T06:32:35.340Z,1.17
2023-03-17T06:35:58.761Z,0.98
2023-03-17T06:39:20.994Z,0.88
2023-03-17T06:42:43.313Z,0.77
2023-03-17T06:46:07.280Z,1.30
2023-03-17T06:49:29.491Z,0.85
2023-03-17T06:52:51.979Z,1.13
2023-03-17T06:56:28.867Z,0.88
2023-03-17T06:59:52.348Z,1.08
2023-03-17T07:03:17.623Z,1.20
2023-03-17T07:10:02.192Z,0.88
2023-03-17T07:13:24.569Z,0.90
2023-03-17T07:16:48.500Z,0.82
2023-03-17T07:20:11.797Z,0.93
2023-03-17T07:23:34.123Z,1.40
2023-03-17T07:26:56.306Z,1.30
2023-03-17T07:30:19.300Z,1.00
2023-03-17T07:33:42.073Z,0.68
2023-03-17T07:37:05.237Z,0.90
2023-03-17T07:40:27.574Z,1.00
2023-03-17T07:43:50.716Z,1.27
2023-03-17T07:47:13.315Z,0.80
2023-03-17T07:50:36.874Z,0.82
2023-03-17T07:54:03.878Z,0.90
2023-03-17T07:57:27.161Z,1.00
2023-03-17T08:00:49.574Z,1.08
2023-03-17T08:04:13.249Z,0.95
2023-03-17T08:07:37.467Z,0.80
2023-03-17T08:11:04.478Z,0.90
2023-03-17T08:14:26.668Z,1.20
2023-03-17T08:17:48.941Z,1.15
2023-03-17T08:21:11.292Z,0.80
2023-03-17T08:24:33.721Z,1.10
2023-03-17T08:27:55.955Z,0.98
2023-03-17T08:31:21.071Z,0.88
2023-03-17T08:34:44.427Z,1.35
2023-03-17T08:38:07.838Z,1.38
2023-03-17T08:41:30.238Z,1.33
2023-03-17T08:44:52.490Z,1.30
2023-03-17T08:48:15.276Z,1.00
2023-03-17T08:51:38.557Z,1.15
2023-03-17T08:55:00.882Z,1.40
2023-03-17T08:58:24.379Z,1.10
2023-03-17T09:01:47.167Z,0.95
2023-03-17T09:05:13.821Z,1.10
2023-03-17T09:08:39.977Z,1.08
2023-03-17T09:12:05.309Z,1.10
2023-03-17T09:18:51.258Z,1.25
2023-03-17T09:22:14.944Z,0.98
2023-03-17T09:25:38.524Z,1.25
2023-03-17T09:29:03.036Z,1.45
2023-03-17T09:35:51.124Z,1.20
2023-03-17T09:39:13.425Z,1.15
2023-03-17T09:42:52.280Z,1.02
2023-03-17T09:46:45.050Z,1.38
2023-03-17T09:50:16.468Z,1.05
2023-03-17T09:54:11.764Z,1.17
2023-03-17T09:57:39.374Z,1.13
2023-03-17T10:01:05.371Z,1.08
2023-03-17T10:04:28.200Z,0.90
2023-03-17T10:08:31.778Z,1.33
2023-03-17T10:12:02.464Z,1.30
2023-03-17T10:15:38.468Z,1.25
2023-03-17T10:19:27.083Z,1.00
2023-03-17T10:22:54.789Z,1.15
2023-03-17T10:26:26.032Z,1.05
2023-03-17T10:29:48.802Z,0.98
2023-03-17T10:33:11.384Z,1.02
2023-03-17T10:36:37.932Z,1.20
2023-03-17T10:40:00.844Z,1.15
2023-03-17T10:43:27.758Z,1.05
2023-03-17T10:46:55.494Z,1.15
2023-03-17T10:50:33.008Z,0.88
2023-03-17T10:53:55.470Z,1.08
2023-03-17T10:57:18.743Z,0.80
2023-03-17T11:04:34.309Z,1.05
2023-03-17T11:08:18.990Z,1.00
2023-03-17T11:12:19.029Z,0.90
2023-03-17T11:16:05.436Z,0.90
2023-03-17T11:19:57.424Z,1.00
2023-03-17T11:23:45.347Z,0.82
2023-03-17T11:27:26.638Z,0.98
2023-03-17T11:31:10.079Z,0.80
2023-03-17T11:34:52.114Z,1.05
2023-03-17T11:38:29.236Z,0.85
2023-03-17T11:42:10.197Z,0.95
2023-03-17T11:45:45.581Z,0.70
2023-03-17T11:49:22.824Z,0.65
2023-03-17T11:53:17.210Z,0.80
2023-03-17T11:56:47.670Z,0.75
2023-03-17T12:00:37.426Z,1.00
2023-03-17T12:04:09.340Z,0.60
2023-03-17T12:07:44.831Z,0.75
2023-03-17T12:11:15.272Z,0.80
2023-03-17T12:14:50.003Z,0.70
2023-03-17T12:18:24.187Z,0.60
2023-03-17T12:21:57.367Z,0.85
2023-03-17T12:25:49.713Z,1.00
2023-03-17T12:29:14.244Z,0.70
2023-03-17T12:32:56.254Z,0.73
2023-03-17T12:36:19.279Z,0.73
2023-03-17T12:39:50.242Z,0.85
2023-03-17T12:43:26.691Z,0.55
2023-03-17T12:47:14.973Z,0.68
2023-03-17T12:50:55.972Z,0.80
2023-03-17T12:54:33.687Z,0.88
2023-03-17T12:58:15.658Z,1.08
2023-03-17T13:01:43.206Z,0.55
2023-03-17T13:05:14.954Z,0.60
2023-03-17T13:08:41.071Z,0.80
2023-03-17T13:12:06.683Z,0.60
2023-03-17T13:15:54.166Z,0.80
2023-03-17T13:19:18.957Z,0.80
2023-03-17T13:23:11.663Z,0.75
2023-03-17T13:26:55.253Z,0.60
2023-03-17T13:30:26.885Z,0.70
2023-03-17T13:33:56.313Z,0.80
2023-03-17T13:37:43.062Z,0.70
2023-03-17T13:41:34.456Z,0.60
2023-03-17T13:45:27.792Z,0.80
2023-03-17T13:48:52.285Z,0.77
2023-03-17T13:52:17.544Z,1.20
2023-03-17T13:59:05.189Z,1.00
2023-03-17T14:02:31.839Z,0.55
2023-03-17T14:05:55.235Z,1.00
2023-03-17T14:09:17.403Z,0.70
2023-03-17T14:12:43.085Z,0.90
2023-03-17T14:16:14.099Z,1.40
2023-03-17T14:19:41.382Z,0.70
2023-03-17T14:23:04.618Z,1.00
2023-03-17T14:26:31.278Z,0.70
2023-03-17T14:29:53.604Z,0.68
2023-03-17T14:33:21.514Z,0.90
2023-03-17T14:36:44.327Z,0.75
2023-03-17T14:40:28.531Z,0.75
2023-03-17T14:43:52.292Z,0.90
2023-03-17T14:47:25.340Z,0.65
2023-03-17T14:50:55.701Z,0.80
2023-03-17T14:54:28.418Z,0.80
2023-03-17T14:57:52.425Z,0.77
2023-03-17T15:01:36.432Z,0.80
2023-03-17T15:05:06.695Z,0.60
2023-03-17T15:08:34.579Z,0.88
2023-03-17T15:12:17.830Z,0.65
2023-03-17T15:15:41.788Z,0.70
2023-03-17T15:19:17.971Z,0.80
2023-03-17T15:22:42.895Z,0.70
2023-03-17T15:26:09.892Z,1.30
2023-03-17T15:29:32.540Z,0.50
2023-03-17T15:33:02.597Z,0.70
2023-03-17T15:36:32.807Z,0.60
2023-03-17T15:39:56.448Z,0.73
2023-03-17T15:43:21.522Z,0.55
2023-03-17T15:46:43.738Z,0.70
2023-03-17T15:50:24.203Z,0.60
2023-03-17T15:53:47.358Z,0.70
2023-03-17T15:57:13.356Z,0.60
2023-03-17T16:00:36.269Z,0.68
2023-03-17T16:03:58.524Z,0.60
2023-03-17T16:07:22.126Z,0.68
2023-03-17T16:10:44.949Z,0.50
2023-03-17T16:14:07.232Z,1.40
2023-03-17T16:17:32.174Z,0.82
2023-03-17T16:20:54.783Z,0.50
2023-03-17T16:24:22.783Z,0.52
2023-03-17T16:27:45.891Z,0.60
2023-03-17T16:31:21.617Z,0.77
2023-03-17T16:34:43.921Z,0.60
2023-03-17T16:38:10.213Z,1.02
2023-03-17T16:41:35.120Z,0.50
2023-03-17T16:44:57.543Z,0.88
2023-03-17T16:48:20.264Z,0.60
2023-03-17T16:51:43.353Z,0.68
2023-03-17T16:55:08.042Z,0.80
2023-03-17T16:58:34.563Z,0.90
2023-03-17T17:02:01.296Z,0.90
2023-03-17T17:05:29.224Z,0.75
2023-03-17T17:08:52.184Z,0.60
2023-03-17T17:12:14.537Z,0.90
2023-03-17T17:15:38.010Z,0.80
2023-03-17T17:19:01.336Z,0.85
2023-03-17T17:22:23.566Z,0.75
2023-03-17T17:25:46.537Z,0.75
2023-03-17T17:29:08.736Z,0.60
2023-03-17T17:32:31.152Z,0.90
2023-03-17T17:35:53.547Z,0.98
2023-03-17T17:39:15.972Z,1.05
2023-03-17T17:42:38.194Z,1.10
2023-03-17T17:46:00.392Z,0.70
2023-03-17T17:49:22.675Z,1.20
2023-03-17T17:52:46.632Z,1.40
2023-03-17T17:56:18.777Z,10.80
2023-03-17T17:59:41.070Z,9.13
2023-03-17T18:03:03.429Z,11.70
2023-03-17T18:06:25.829Z,8.27
2023-03-17T18:09:47.991Z,8.68
2023-03-17T18:13:10.220Z,9.75
2023-03-17T18:16:32.428Z,7.78
2023-03-17T18:19:54.713Z,11.50
2023-03-17T18:23:17.531Z,9.23
2023-03-17T18:26:39.817Z,18.65
2023-03-17T18:30:02.934Z,15.10
2023-03-17T18:33:25.737Z,39.15
2023-03-17T18:36:48.128Z,27.98
2023-03-17T18:40:16.366Z,17.52
2023-03-17T18:43:42.506Z,12.60
2023-03-17T18:47:04.765Z,11.20
2023-03-17T18:50:27.267Z,10.00
2023-03-17T18:53:49.755Z,10.63
2023-03-17T18:57:12.348Z,10.82
2023-03-17T19:00:34.599Z,9.10
2023-03-17T19:03:56.785Z,8.73
2023-03-17T19:07:19.153Z,7.40
2023-03-17T19:10:44.050Z,10.60
2023-03-17T19:14:08.333Z,9.88
2023-03-17T19:17:30.618Z,8.85
2023-03-17T19:20:54.382Z,8.07
2023-03-17T19:24:17.022Z,6.78
2023-03-17T19:27:39.994Z,7.03
2023-03-17T19:31:02.347Z,6.85
2023-03-17T19:34:24.652Z,6.40
2023-03-17T19:37:46.856Z,6.82
2023-03-17T19:41:09.377Z,6.57
2023-03-17T19:44:31.661Z,5.88
2023-03-17T19:47:53.939Z,6.05
2023-03-17T19:51:16.267Z,5.75
2023-03-17T19:54:43.489Z,5.43
2023-03-17T19:58:08.181Z,5.03
2023-03-17T20:01:32.065Z,4.78
2023-03-17T20:04:55.508Z,4.88
2023-03-17T20:08:19.270Z,4.57
2023-03-17T20:11:41.606Z,77.40
2023-03-17T20:15:06.858Z,67.72
2023-03-17T20:18:29.655Z,52.60
2023-03-17T20:21:53.242Z,45.72
2023-03-17T20:25:15.521Z,47.40
2023-03-17T20:28:38.768Z,42.25
2023-03-17T20:32:02.178Z,38.00
2023-03-17T20:35:27.415Z,34.22
2023-03-17T20:42:14.516Z,33.65
2023-03-17T20:45:37.923Z,28.73
2023-03-17T20:49:01.135Z,27.05
2023-03-17T20:52:23.423Z,29.38
2023-03-17T20:55:45.922Z,27.90
2023-03-17T20:59:09.593Z,26.27
2023-03-17T21:02:31.909Z,23.58
2023-03-17T21:05:54.133Z,22.52
2023-03-17T21:09:16.512Z,20.88
2023-03-17T21:12:38.926Z,22.00
2023-03-17T21:16:02.242Z,18.70
2023-03-17T21:19:24.504Z,17.40
2023-03-17T21:22:47.607Z,16.42
2023-03-17T21:26:10.643Z,16.10
2023-03-17T21:29:34.600Z,15.45
2023-03-17T21:32:56.968Z,12.10
2023-03-17T21:36:21.199Z,13.27
2023-03-17T21:39:44.624Z,12.57
2023-03-17T21:43:06.868Z,11.57
2023-03-17T21:46:29.710Z,10.45
2023-03-17T21:49:51.966Z,10.77
2023-03-17T21:53:15.821Z,9.55
2023-03-17T21:56:39.632Z,8.93
2023-03-17T22:00:04.023Z,7.30
2023-03-17T22:03:34.893Z,8.27
2023-03-17T22:06:58.887Z,7.85
2023-03-17T22:10:21.521Z,7.85
2023-03-17T22:13:44.619Z,6.40
2023-03-17T22:17:06.941Z,6.30
2023-03-17T22:20:30.209Z,6.97
2023-03-17T22:23:52.681Z,6.18
2023-03-17T22:27:17.133Z,5.43
2023-03-17T22:30:42.237Z,4.95
2023-03-17T22:34:04.604Z,5.20
2023-03-17T22:37:27.886Z,4.90
2023-03-17T22:41:04.057Z,4.65
2023-03-17T22:44:26.987Z,3.70
2023-03-17T22:47:49.431Z,4.22
2023-03-17T22:51:16.465Z,3.92
2023-03-17T22:54:38.726Z,3.85
2023-03-17T22:58:00.927Z,3.80
2023-03-17T23:01:25.748Z,2.85
2023-03-17T23:04:49.120Z,3.35
2023-03-17T23:08:11.332Z,3.40
2023-03-17T23:11:33.611Z,3.15
2023-03-17T23:14:55.924Z,3.50
2023-03-17T23:18:18.245Z,3.30
2023-03-17T23:21:40.551Z,2.70
2023-03-17T23:25:03.878Z,3.33
2023-03-17T23:28:26.465Z,2.95
2023-03-17T23:31:48.893Z,2.45
2023-03-17T23:35:13.530Z,2.38
2023-03-17T23:38:36.632Z,2.50
2023-03-17T23:41:58.843Z,2.30
2023-03-17T23:45:23.154Z,2.13
2023-03-17T23:48:45.441Z,2.10
2023-03-17T23:52:07.772Z,1.70
2023-03-17T23:55:30.620Z,2.20
2023-03-17T23:58:53.001Z,2.00
